Washington, District of Columbia
Traffic Map
Current Weather Conditions
Washington, District of Columbia
Broken Clouds
Broken Clouds
28°
Feels Like: 29°
Wind Chill: 28° Ceiling: 25000
Heat Index: 29° Visibility: 10mi
Dew Point: 18° Wind: 10mph
Humidity: 54% Direction: 180° (S)
Pressure: 30.1in Gusts: 0mph
Raw Report DataKDCA 292252Z 18009KT 10SM FEW050 BKN250 28/18 A3010 RMK AO2 SLP192 T02830183
Traffic Incident Summary
Active as of:
Severity:
Category:
InformationThere was an issue retrieving the traffic information for this location. Please try a different location or try again shortly.
Advertisements
Track Severe Weather on mobile